sensor_id;sensor_type;location;lat;lon;timestamp;P1;durP1;ratioP1;P2;durP2;ratioP2
29686;SDS011;16599;47.078;15.536;2022-10-30T00:00:38;23.38;;;12.18;;
29686;SDS011;16599;47.078;15.536;2022-10-30T00:03:08;21.27;;;11.70;;
29686;SDS011;16599;47.078;15.536;2022-10-30T00:05:41;21.02;;;11.93;;
29686;SDS011;16599;47.078;15.536;2022-10-30T00:08:10;26.58;;;12.63;;
29686;SDS011;16599;47.078;15.536;2022-10-30T00:10:38;23.17;;;12.32;;
29686;SDS011;16599;47.078;15.536;2022-10-30T00:13:06;22.00;;;11.82;;
29686;SDS011;16599;47.078;15.536;2022-10-30T00:15:33;18.38;;;11.35;;
29686;SDS011;16599;47.078;15.536;2022-10-30T00:18:01;25.80;;;11.77;;
29686;SDS011;16599;47.078;15.536;2022-10-30T00:20:28;22.20;;;11.52;;
29686;SDS011;16599;47.078;15.536;2022-10-30T00:22:55;24.75;;;11.52;;
29686;SDS011;16599;47.078;15.536;2022-10-30T00:25:22;17.30;;;10.57;;
29686;SDS011;16599;47.078;15.536;2022-10-30T00:27:49;20.83;;;11.32;;
29686;SDS011;16599;47.078;15.536;2022-10-30T00:30:16;20.08;;;10.02;;
29686;SDS011;16599;47.078;15.536;2022-10-30T00:32:44;17.42;;;10.25;;
29686;SDS011;16599;47.078;15.536;2022-10-30T00:35:10;16.30;;;9.70;;
29686;SDS011;16599;47.078;15.536;2022-10-30T00:37:37;16.88;;;9.55;;
29686;SDS011;16599;47.078;15.536;2022-10-30T00:40:05;22.48;;;10.23;;
29686;SDS011;16599;47.078;15.536;2022-10-30T00:42:32;21.35;;;10.13;;
29686;SDS011;16599;47.078;15.536;2022-10-30T00:44:59;26.60;;;10.43;;
29686;SDS011;16599;47.078;15.536;2022-10-30T00:47:31;19.42;;;10.27;;
29686;SDS011;16599;47.078;15.536;2022-10-30T00:52:48;22.48;;;10.38;;
29686;SDS011;16599;47.078;15.536;2022-10-30T00:55:30;17.88;;;9.73;;
29686;SDS011;16599;47.078;15.536;2022-10-30T00:58:12;18.30;;;9.52;;
29686;SDS011;16599;47.078;15.536;2022-10-30T01:00:43;17.95;;;9.60;;
29686;SDS011;16599;47.078;15.536;2022-10-30T01:03:14;25.45;;;10.60;;
29686;SDS011;16599;47.078;15.536;2022-10-30T01:05:41;25.33;;;9.85;;
29686;SDS011;16599;47.078;15.536;2022-10-30T01:08:13;18.00;;;9.40;;
29686;SDS011;16599;47.078;15.536;2022-10-30T01:10:41;19.67;;;9.27;;
29686;SDS011;16599;47.078;15.536;2022-10-30T01:13:08;18.45;;;9.25;;
29686;SDS011;16599;47.078;15.536;2022-10-30T01:15:37;20.67;;;10.13;;
29686;SDS011;16599;47.078;15.536;2022-10-30T01:20:55;17.70;;;8.73;;
29686;SDS011;16599;47.078;15.536;2022-10-30T01:28:49;22.17;;;9.63;;
29686;SDS011;16599;47.078;15.536;2022-10-30T01:37:13;20.73;;;9.50;;
29686;SDS011;16599;47.078;15.536;2022-10-30T01:40:18;15.30;;;8.68;;
29686;SDS011;16599;47.078;15.536;2022-10-30T01:42:51;18.05;;;8.32;;
29686;SDS011;16599;47.078;15.536;2022-10-30T01:45:39;29.70;;;9.95;;
29686;SDS011;16599;47.078;15.536;2022-10-30T01:51:03;19.42;;;8.80;;
29686;SDS011;16599;47.078;15.536;2022-10-30T01:53:50;18.52;;;8.95;;
29686;SDS011;16599;47.078;15.536;2022-10-30T02:02:00;19.90;;;8.95;;
29686;SDS011;16599;47.078;15.536;2022-10-30T02:04:27;21.23;;;8.65;;
29686;SDS011;16599;47.078;15.536;2022-10-30T02:06:55;19.23;;;8.98;;
29686;SDS011;16599;47.078;15.536;2022-10-30T02:09:22;16.88;;;8.13;;
29686;SDS011;16599;47.078;15.536;2022-10-30T02:11:49;19.73;;;8.73;;
29686;SDS011;16599;47.078;15.536;2022-10-30T02:14:26;15.57;;;8.85;;
29686;SDS011;16599;47.078;15.536;2022-10-30T02:16:56;17.20;;;8.88;;
29686;SDS011;16599;47.078;15.536;2022-10-30T02:19:26;20.05;;;8.95;;
29686;SDS011;16599;47.078;15.536;2022-10-30T02:21:53;19.92;;;9.05;;
29686;SDS011;16599;47.078;15.536;2022-10-30T02:24:19;25.58;;;9.48;;
29686;SDS011;16599;47.078;15.536;2022-10-30T02:26:46;18.52;;;8.52;;
29686;SDS011;16599;47.078;15.536;2022-10-30T02:29:13;20.67;;;8.27;;
29686;SDS011;16599;47.078;15.536;2022-10-30T02:31:40;21.33;;;9.48;;
29686;SDS011;16599;47.078;15.536;2022-10-30T02:34:07;23.48;;;9.18;;
29686;SDS011;16599;47.078;15.536;2022-10-30T02:36:34;24.83;;;9.20;;
29686;SDS011;16599;47.078;15.536;2022-10-30T02:39:00;24.35;;;9.90;;
29686;SDS011;16599;47.078;15.536;2022-10-30T02:41:27;27.70;;;9.77;;
29686;SDS011;16599;47.078;15.536;2022-10-30T02:43:54;16.83;;;8.88;;
29686;SDS011;16599;47.078;15.536;2022-10-30T02:46:21;21.15;;;8.98;;
29686;SDS011;16599;47.078;15.536;2022-10-30T02:48:48;20.20;;;9.75;;
29686;SDS011;16599;47.078;15.536;2022-10-30T02:51:15;21.55;;;8.70;;
29686;SDS011;16599;47.078;15.536;2022-10-30T02:53:42;19.27;;;9.25;;
29686;SDS011;16599;47.078;15.536;2022-10-30T02:56:10;19.02;;;9.68;;
29686;SDS011;16599;47.078;15.536;2022-10-30T02:58:38;20.20;;;9.07;;
29686;SDS011;16599;47.078;15.536;2022-10-30T03:01:10;139.30;;;11.50;;
29686;SDS011;16599;47.078;15.536;2022-10-30T03:03:39;16.05;;;9.02;;
29686;SDS011;16599;47.078;15.536;2022-10-30T03:06:07;26.52;;;9.50;;
29686;SDS011;16599;47.078;15.536;2022-10-30T03:08:35;20.58;;;9.52;;
29686;SDS011;16599;47.078;15.536;2022-10-30T03:11:06;22.42;;;9.93;;
29686;SDS011;16599;47.078;15.536;2022-10-30T03:13:35;17.05;;;8.00;;
29686;SDS011;16599;47.078;15.536;2022-10-30T03:16:04;15.52;;;9.35;;
29686;SDS011;16599;47.078;15.536;2022-10-30T03:18:36;24.15;;;9.55;;
29686;SDS011;16599;47.078;15.536;2022-10-30T03:21:03;31.15;;;10.25;;
29686;SDS011;16599;47.078;15.536;2022-10-30T03:23:31;20.95;;;9.10;;
29686;SDS011;16599;47.078;15.536;2022-10-30T03:25:59;22.80;;;8.85;;
29686;SDS011;16599;47.078;15.536;2022-10-30T03:28:27;17.40;;;9.10;;
29686;SDS011;16599;47.078;15.536;2022-10-30T03:30:59;20.45;;;9.70;;
29686;SDS011;16599;47.078;15.536;2022-10-30T03:33:31;14.95;;;8.85;;
29686;SDS011;16599;47.078;15.536;2022-10-30T03:35:58;19.48;;;9.50;;
29686;SDS011;16599;47.078;15.536;2022-10-30T03:38:26;23.63;;;9.35;;
29686;SDS011;16599;47.078;15.536;2022-10-30T03:40:52;17.80;;;8.65;;
29686;SDS011;16599;47.078;15.536;2022-10-30T03:43:19;16.65;;;8.75;;
29686;SDS011;16599;47.078;15.536;2022-10-30T03:45:47;21.60;;;8.70;;
29686;SDS011;16599;47.078;15.536;2022-10-30T03:48:16;20.05;;;8.93;;
29686;SDS011;16599;47.078;15.536;2022-10-30T03:50:44;19.85;;;8.95;;
29686;SDS011;16599;47.078;15.536;2022-10-30T03:53:11;21.08;;;9.20;;
29686;SDS011;16599;47.078;15.536;2022-10-30T03:55:39;22.00;;;9.07;;
29686;SDS011;16599;47.078;15.536;2022-10-30T03:58:06;26.88;;;9.70;;
29686;SDS011;16599;47.078;15.536;2022-10-30T04:00:33;19.02;;;8.57;;
29686;SDS011;16599;47.078;15.536;2022-10-30T04:03:01;18.17;;;9.18;;
29686;SDS011;16599;47.078;15.536;2022-10-30T04:05:32;20.83;;;9.00;;
29686;SDS011;16599;47.078;15.536;2022-10-30T04:08:00;22.52;;;8.27;;
29686;SDS011;16599;47.078;15.536;2022-10-30T04:10:28;20.15;;;9.18;;
29686;SDS011;16599;47.078;15.536;2022-10-30T04:13:02;19.20;;;8.65;;
29686;SDS011;16599;47.078;15.536;2022-10-30T04:15:31;25.50;;;8.75;;
29686;SDS011;16599;47.078;15.536;2022-10-30T04:17:58;20.13;;;8.80;;
29686;SDS011;16599;47.078;15.536;2022-10-30T04:20:27;20.33;;;9.05;;
29686;SDS011;16599;47.078;15.536;2022-10-30T04:22:55;25.40;;;9.38;;
29686;SDS011;16599;47.078;15.536;2022-10-30T04:25:23;20.42;;;8.73;;
29686;SDS011;16599;47.078;15.536;2022-10-30T04:27:50;25.60;;;9.95;;
29686;SDS011;16599;47.078;15.536;2022-10-30T04:30:18;18.90;;;9.75;;
29686;SDS011;16599;47.078;15.536;2022-10-30T04:32:51;23.50;;;9.35;;
29686;SDS011;16599;47.078;15.536;2022-10-30T04:35:23;21.92;;;9.30;;
29686;SDS011;16599;47.078;15.536;2022-10-30T04:37:55;21.05;;;8.82;;
29686;SDS011;16599;47.078;15.536;2022-10-30T04:43:01;24.48;;;8.23;;
29686;SDS011;16599;47.078;15.536;2022-10-30T04:45:28;24.35;;;9.07;;
29686;SDS011;16599;47.078;15.536;2022-10-30T04:48:06;18.65;;;8.55;;
29686;SDS011;16599;47.078;15.536;2022-10-30T04:50:36;20.73;;;8.68;;
29686;SDS011;16599;47.078;15.536;2022-10-30T04:53:11;19.30;;;9.10;;
29686;SDS011;16599;47.078;15.536;2022-10-30T04:55:39;25.17;;;9.00;;
29686;SDS011;16599;47.078;15.536;2022-10-30T04:58:07;19.13;;;7.90;;
29686;SDS011;16599;47.078;15.536;2022-10-30T05:00:35;24.05;;;8.65;;
29686;SDS011;16599;47.078;15.536;2022-10-30T05:03:01;17.02;;;8.40;;
29686;SDS011;16599;47.078;15.536;2022-10-30T05:05:29;16.13;;;8.00;;
29686;SDS011;16599;47.078;15.536;2022-10-30T05:07:57;19.48;;;8.13;;
29686;SDS011;16599;47.078;15.536;2022-10-30T05:10:24;20.77;;;8.43;;
29686;SDS011;16599;47.078;15.536;2022-10-30T05:12:51;18.08;;;8.05;;
29686;SDS011;16599;47.078;15.536;2022-10-30T05:15:19;21.42;;;8.25;;
29686;SDS011;16599;47.078;15.536;2022-10-30T05:17:49;19.90;;;8.27;;
29686;SDS011;16599;47.078;15.536;2022-10-30T05:20:18;57.60;;;9.43;;
29686;SDS011;16599;47.078;15.536;2022-10-30T05:22:45;18.50;;;7.93;;
29686;SDS011;16599;47.078;15.536;2022-10-30T05:25:18;18.00;;;8.05;;
29686;SDS011;16599;47.078;15.536;2022-10-30T05:27:45;24.42;;;8.60;;
29686;SDS011;16599;47.078;15.536;2022-10-30T05:30:12;16.85;;;8.82;;
29686;SDS011;16599;47.078;15.536;2022-10-30T05:32:39;18.58;;;7.78;;
29686;SDS011;16599;47.078;15.536;2022-10-30T05:35:06;27.23;;;8.27;;
29686;SDS011;16599;47.078;15.536;2022-10-30T05:37:33;19.80;;;8.13;;
29686;SDS011;16599;47.078;15.536;2022-10-30T05:40:00;18.17;;;7.55;;
29686;SDS011;16599;47.078;15.536;2022-10-30T05:42:27;23.90;;;9.23;;
29686;SDS011;16599;47.078;15.536;2022-10-30T05:44:54;20.58;;;7.88;;
29686;SDS011;16599;47.078;15.536;2022-10-30T05:47:26;15.57;;;7.72;;
29686;SDS011;16599;47.078;15.536;2022-10-30T05:49:53;22.65;;;8.63;;
29686;SDS011;16599;47.078;15.536;2022-10-30T05:52:20;27.00;;;8.73;;
29686;SDS011;16599;47.078;15.536;2022-10-30T05:54:46;24.90;;;8.23;;
29686;SDS011;16599;47.078;15.536;2022-10-30T05:57:13;18.58;;;8.07;;
29686;SDS011;16599;47.078;15.536;2022-10-30T05:59:40;16.48;;;8.40;;
29686;SDS011;16599;47.078;15.536;2022-10-30T06:02:07;18.58;;;8.82;;
29686;SDS011;16599;47.078;15.536;2022-10-30T06:04:34;22.83;;;8.52;;
29686;SDS011;16599;47.078;15.536;2022-10-30T06:07:01;24.30;;;9.20;;
29686;SDS011;16599;47.078;15.536;2022-10-30T06:09:27;16.02;;;7.95;;
29686;SDS011;16599;47.078;15.536;2022-10-30T06:11:54;17.13;;;7.90;;
29686;SDS011;16599;47.078;15.536;2022-10-30T06:14:21;19.55;;;7.38;;
29686;SDS011;16599;47.078;15.536;2022-10-30T06:16:48;18.38;;;7.47;;
29686;SDS011;16599;47.078;15.536;2022-10-30T06:19:15;17.08;;;7.68;;
29686;SDS011;16599;47.078;15.536;2022-10-30T06:21:44;24.45;;;7.75;;
29686;SDS011;16599;47.078;15.536;2022-10-30T06:24:12;13.48;;;8.07;;
29686;SDS011;16599;47.078;15.536;2022-10-30T06:26:39;17.63;;;6.70;;
29686;SDS011;16599;47.078;15.536;2022-10-30T06:29:06;23.58;;;7.65;;
29686;SDS011;16599;47.078;15.536;2022-10-30T06:31:33;15.02;;;7.57;;
29686;SDS011;16599;47.078;15.536;2022-10-30T06:33:59;22.25;;;7.20;;
29686;SDS011;16599;47.078;15.536;2022-10-30T06:36:26;20.10;;;6.97;;
29686;SDS011;16599;47.078;15.536;2022-10-30T06:38:53;18.77;;;7.47;;
29686;SDS011;16599;47.078;15.536;2022-10-30T06:41:20;23.77;;;6.90;;
29686;SDS011;16599;47.078;15.536;2022-10-30T06:43:55;21.27;;;7.38;;
29686;SDS011;16599;47.078;15.536;2022-10-30T06:46:22;23.33;;;7.55;;
29686;SDS011;16599;47.078;15.536;2022-10-30T06:48:55;13.23;;;7.03;;
29686;SDS011;16599;47.078;15.536;2022-10-30T06:51:22;18.17;;;7.30;;
29686;SDS011;16599;47.078;15.536;2022-10-30T06:53:49;23.23;;;8.70;;
29686;SDS011;16599;47.078;15.536;2022-10-30T06:56:16;22.20;;;7.15;;
29686;SDS011;16599;47.078;15.536;2022-10-30T06:58:43;20.20;;;7.82;;
29686;SDS011;16599;47.078;15.536;2022-10-30T07:01:10;17.92;;;8.25;;
29686;SDS011;16599;47.078;15.536;2022-10-30T07:03:37;22.65;;;8.45;;
29686;SDS011;16599;47.078;15.536;2022-10-30T07:06:03;20.75;;;8.00;;
29686;SDS011;16599;47.078;15.536;2022-10-30T07:08:30;22.80;;;8.48;;
29686;SDS011;16599;47.078;15.536;2022-10-30T07:10:57;26.98;;;9.82;;
29686;SDS011;16599;47.078;15.536;2022-10-30T07:13:24;23.52;;;10.27;;
29686;SDS011;16599;47.078;15.536;2022-10-30T07:15:51;25.58;;;10.18;;
29686;SDS011;16599;47.078;15.536;2022-10-30T07:18:18;20.58;;;10.38;;
29686;SDS011;16599;47.078;15.536;2022-10-30T07:20:45;20.90;;;10.57;;
29686;SDS011;16599;47.078;15.536;2022-10-30T07:23:11;28.05;;;9.88;;
29686;SDS011;16599;47.078;15.536;2022-10-30T07:25:38;23.00;;;10.68;;
29686;SDS011;16599;47.078;15.536;2022-10-30T07:28:05;24.35;;;11.70;;
29686;SDS011;16599;47.078;15.536;2022-10-30T07:30:32;38.70;;;15.40;;
29686;SDS011;16599;47.078;15.536;2022-10-30T07:33:00;37.50;;;14.75;;
29686;SDS011;16599;47.078;15.536;2022-10-30T07:35:29;33.00;;;13.05;;
29686;SDS011;16599;47.078;15.536;2022-10-30T07:38:07;33.47;;;12.65;;
29686;SDS011;16599;47.078;15.536;2022-10-30T07:40:36;51.08;;;16.17;;
29686;SDS011;16599;47.078;15.536;2022-10-30T07:43:03;32.22;;;14.15;;
29686;SDS011;16599;47.078;15.536;2022-10-30T07:45:31;35.40;;;14.90;;
29686;SDS011;16599;47.078;15.536;2022-10-30T07:47:58;40.45;;;14.85;;
29686;SDS011;16599;47.078;15.536;2022-10-30T07:50:26;27.77;;;13.93;;
29686;SDS011;16599;47.078;15.536;2022-10-30T07:52:53;31.17;;;15.75;;
29686;SDS011;16599;47.078;15.536;2022-10-30T07:55:20;30.17;;;14.35;;
29686;SDS011;16599;47.078;15.536;2022-10-30T07:57:46;27.27;;;14.35;;
29686;SDS011;16599;47.078;15.536;2022-10-30T08:00:13;33.20;;;15.30;;
29686;SDS011;16599;47.078;15.536;2022-10-30T08:02:43;31.95;;;14.45;;
29686;SDS011;16599;47.078;15.536;2022-10-30T08:05:15;37.55;;;16.35;;
29686;SDS011;16599;47.078;15.536;2022-10-30T08:07:44;34.63;;;15.13;;
29686;SDS011;16599;47.078;15.536;2022-10-30T08:10:12;37.70;;;15.93;;
29686;SDS011;16599;47.078;15.536;2022-10-30T08:12:39;34.92;;;16.75;;
29686;SDS011;16599;47.078;15.536;2022-10-30T08:15:09;38.35;;;17.60;;
29686;SDS011;16599;47.078;15.536;2022-10-30T08:17:40;39.47;;;16.50;;
29686;SDS011;16599;47.078;15.536;2022-10-30T08:20:09;36.85;;;14.65;;
29686;SDS011;16599;47.078;15.536;2022-10-30T08:22:47;39.05;;;15.98;;
29686;SDS011;16599;47.078;15.536;2022-10-30T08:25:15;35.92;;;14.05;;
29686;SDS011;16599;47.078;15.536;2022-10-30T08:30:25;29.33;;;12.52;;
29686;SDS011;16599;47.078;15.536;2022-10-30T08:32:57;34.08;;;12.10;;
29686;SDS011;16599;47.078;15.536;2022-10-30T08:35:26;29.95;;;10.32;;
29686;SDS011;16599;47.078;15.536;2022-10-30T08:37:53;31.17;;;11.57;;
29686;SDS011;16599;47.078;15.536;2022-10-30T08:40:22;30.90;;;10.90;;
29686;SDS011;16599;47.078;15.536;2022-10-30T08:42:52;26.05;;;9.48;;
29686;SDS011;16599;47.078;15.536;2022-10-30T08:45:21;30.50;;;10.52;;
29686;SDS011;16599;47.078;15.536;2022-10-30T08:47:57;27.05;;;9.90;;
29686;SDS011;16599;47.078;15.536;2022-10-30T08:50:26;40.10;;;10.50;;
29686;SDS011;16599;47.078;15.536;2022-10-30T08:52:53;29.48;;;10.77;;
29686;SDS011;16599;47.078;15.536;2022-10-30T08:55:20;26.45;;;10.80;;
29686;SDS011;16599;47.078;15.536;2022-10-30T08:57:47;30.33;;;11.85;;
29686;SDS011;16599;47.078;15.536;2022-10-30T09:00:14;28.55;;;10.55;;
29686;SDS011;16599;47.078;15.536;2022-10-30T09:02:41;33.08;;;10.82;;
29686;SDS011;16599;47.078;15.536;2022-10-30T09:05:08;21.42;;;9.98;;
29686;SDS011;16599;47.078;15.536;2022-10-30T09:07:35;23.45;;;9.82;;
29686;SDS011;16599;47.078;15.536;2022-10-30T09:10:02;25.50;;;8.95;;
29686;SDS011;16599;47.078;15.536;2022-10-30T09:12:29;24.13;;;8.75;;
29686;SDS011;16599;47.078;15.536;2022-10-30T09:14:56;26.33;;;8.77;;
29686;SDS011;16599;47.078;15.536;2022-10-30T09:17:23;25.35;;;8.90;;
29686;SDS011;16599;47.078;15.536;2022-10-30T09:19:50;24.60;;;7.45;;
29686;SDS011;16599;47.078;15.536;2022-10-30T09:22:17;16.17;;;7.18;;
29686;SDS011;16599;47.078;15.536;2022-10-30T09:24:45;15.80;;;6.65;;
29686;SDS011;16599;47.078;15.536;2022-10-30T09:27:13;17.45;;;6.68;;
29686;SDS011;16599;47.078;15.536;2022-10-30T09:29:40;15.82;;;6.15;;
29686;SDS011;16599;47.078;15.536;2022-10-30T09:32:08;20.45;;;6.03;;
29686;SDS011;16599;47.078;15.536;2022-10-30T09:34:35;20.60;;;5.97;;
29686;SDS011;16599;47.078;15.536;2022-10-30T09:37:03;20.50;;;6.00;;
29686;SDS011;16599;47.078;15.536;2022-10-30T09:39:31;22.63;;;5.78;;
29686;SDS011;16599;47.078;15.536;2022-10-30T09:44:59;17.95;;;6.13;;
29686;SDS011;16599;47.078;15.536;2022-10-30T09:50:30;18.50;;;5.57;;
29686;SDS011;16599;47.078;15.536;2022-10-30T09:55:56;20.75;;;5.60;;
29686;SDS011;16599;47.078;15.536;2022-10-30T10:04:42;25.20;;;5.55;;
29686;SDS011;16599;47.078;15.536;2022-10-30T10:09:45;18.35;;;5.18;;
29686;SDS011;16599;47.078;15.536;2022-10-30T10:17:46;24.08;;;9.38;;
29686;SDS011;16599;47.078;15.536;2022-10-30T10:20:15;18.50;;;6.50;;
29686;SDS011;16599;47.078;15.536;2022-10-30T10:23:49;19.25;;;5.50;;
29686;SDS011;16599;47.078;15.536;2022-10-30T10:25:59;13.77;;;5.35;;
29686;SDS011;16599;47.078;15.536;2022-10-30T10:32:03;15.75;;;5.78;;
29686;SDS011;16599;47.078;15.536;2022-10-30T10:51:41;17.02;;;5.38;;
29686;SDS011;16599;47.078;15.536;2022-10-30T10:54:14;13.77;;;4.95;;
29686;SDS011;16599;47.078;15.536;2022-10-30T10:56:45;18.88;;;5.35;;
29686;SDS011;16599;47.078;15.536;2022-10-30T10:59:15;24.90;;;5.65;;
29686;SDS011;16599;47.078;15.536;2022-10-30T11:01:46;18.48;;;5.95;;
29686;SDS011;16599;47.078;15.536;2022-10-30T11:07:20;15.75;;;5.40;;
29686;SDS011;16599;47.078;15.536;2022-10-30T11:09:50;22.00;;;5.63;;
29686;SDS011;16599;47.078;15.536;2022-10-30T11:12:28;18.70;;;5.70;;
29686;SDS011;16599;47.078;15.536;2022-10-30T11:15:17;18.50;;;5.15;;
29686;SDS011;16599;47.078;15.536;2022-10-30T11:18:04;13.70;;;5.68;;
29686;SDS011;16599;47.078;15.536;2022-10-30T11:20:37;18.88;;;5.88;;
29686;SDS011;16599;47.078;15.536;2022-10-30T11:25:59;12.07;;;5.15;;
29686;SDS011;16599;47.078;15.536;2022-10-30T11:28:49;18.10;;;5.45;;
29686;SDS011;16599;47.078;15.536;2022-10-30T11:33:50;18.33;;;5.10;;
29686;SDS011;16599;47.078;15.536;2022-10-30T11:36:18;20.13;;;7.22;;
29686;SDS011;16599;47.078;15.536;2022-10-30T11:38:48;19.23;;;6.13;;
29686;SDS011;16599;47.078;15.536;2022-10-30T11:41:16;22.42;;;6.93;;
29686;SDS011;16599;47.078;15.536;2022-10-30T11:43:44;14.98;;;5.28;;
29686;SDS011;16599;47.078;15.536;2022-10-30T11:46:18;11.00;;;5.80;;
29686;SDS011;16599;47.078;15.536;2022-10-30T11:48:48;17.08;;;5.90;;
29686;SDS011;16599;47.078;15.536;2022-10-30T11:51:33;22.40;;;5.57;;
29686;SDS011;16599;47.078;15.536;2022-10-30T11:54:04;17.35;;;5.28;;
29686;SDS011;16599;47.078;15.536;2022-10-30T11:56:33;15.07;;;4.85;;
29686;SDS011;16599;47.078;15.536;2022-10-30T11:59:01;15.45;;;5.03;;
29686;SDS011;16599;47.078;15.536;2022-10-30T12:01:35;16.67;;;5.30;;
29686;SDS011;16599;47.078;15.536;2022-10-30T12:04:15;24.58;;;5.50;;
29686;SDS011;16599;47.078;15.536;2022-10-30T12:07:08;14.63;;;5.13;;
29686;SDS011;16599;47.078;15.536;2022-10-30T12:09:49;22.80;;;5.15;;
29686;SDS011;16599;47.078;15.536;2022-10-30T12:17:15;12.05;;;4.57;;
29686;SDS011;16599;47.078;15.536;2022-10-30T12:19:50;13.57;;;4.85;;
29686;SDS011;16599;47.078;15.536;2022-10-30T12:22:24;16.77;;;5.07;;
29686;SDS011;16599;47.078;15.536;2022-10-30T12:25:00;24.83;;;4.90;;
29686;SDS011;16599;47.078;15.536;2022-10-30T12:27:30;18.30;;;4.80;;
29686;SDS011;16599;47.078;15.536;2022-10-30T12:30:06;18.80;;;6.28;;
29686;SDS011;16599;47.078;15.536;2022-10-30T12:35:40;17.52;;;4.95;;
29686;SDS011;16599;47.078;15.536;2022-10-30T12:38:26;22.23;;;5.38;;
29686;SDS011;16599;47.078;15.536;2022-10-30T12:46:37;18.13;;;4.30;;
29686;SDS011;16599;47.078;15.536;2022-10-30T12:54:35;22.73;;;5.05;;
29686;SDS011;16599;47.078;15.536;2022-10-30T12:57:25;18.63;;;4.38;;
29686;SDS011;16599;47.078;15.536;2022-10-30T12:59:58;17.13;;;4.90;;
29686;SDS011;16599;47.078;15.536;2022-10-30T13:02:41;20.52;;;4.85;;
29686;SDS011;16599;47.078;15.536;2022-10-30T13:13:51;13.95;;;4.20;;
29686;SDS011;16599;47.078;15.536;2022-10-30T13:16:21;19.67;;;4.45;;
29686;SDS011;16599;47.078;15.536;2022-10-30T13:18:54;20.13;;;4.70;;
29686;SDS011;16599;47.078;15.536;2022-10-30T13:21:29;17.83;;;5.25;;
29686;SDS011;16599;47.078;15.536;2022-10-30T13:24:04;22.15;;;4.60;;
29686;SDS011;16599;47.078;15.536;2022-10-30T13:26:41;13.90;;;4.32;;
29686;SDS011;16599;47.078;15.536;2022-10-30T13:48:36;33.63;;;12.85;;
29686;SDS011;16599;47.078;15.536;2022-10-30T13:53:42;25.20;;;9.27;;
29686;SDS011;16599;47.078;15.536;2022-10-30T13:56:16;16.50;;;6.75;;
29686;SDS011;16599;47.078;15.536;2022-10-30T13:58:49;22.10;;;6.82;;
29686;SDS011;16599;47.078;15.536;2022-10-30T14:01:41;18.33;;;5.47;;
29686;SDS011;16599;47.078;15.536;2022-10-30T14:04:35;19.33;;;5.68;;
29686;SDS011;16599;47.078;15.536;2022-10-30T14:10:04;26.98;;;5.20;;
29686;SDS011;16599;47.078;15.536;2022-10-30T14:15:31;12.18;;;4.53;;
29686;SDS011;16599;47.078;15.536;2022-10-30T14:20:48;19.15;;;4.50;;
29686;SDS011;16599;47.078;15.536;2022-10-30T14:31:04;17.83;;;4.88;;
29686;SDS011;16599;47.078;15.536;2022-10-30T14:33:48;15.93;;;4.57;;
29686;SDS011;16599;47.078;15.536;2022-10-30T14:38:51;16.58;;;4.88;;
29686;SDS011;16599;47.078;15.536;2022-10-30T14:41:26;14.93;;;5.35;;
29686;SDS011;16599;47.078;15.536;2022-10-30T14:46:40;19.58;;;5.07;;
29686;SDS011;16599;47.078;15.536;2022-10-30T14:49:23;13.88;;;4.55;;
29686;SDS011;16599;47.078;15.536;2022-10-30T14:51:58;19.33;;;5.05;;
29686;SDS011;16599;47.078;15.536;2022-10-30T14:54:41;23.02;;;6.10;;
29686;SDS011;16599;47.078;15.536;2022-10-30T14:57:19;19.90;;;4.93;;
29686;SDS011;16599;47.078;15.536;2022-10-30T14:59:48;21.50;;;5.47;;
29686;SDS011;16599;47.078;15.536;2022-10-30T15:02:46;21.65;;;5.43;;
29686;SDS011;16599;47.078;15.536;2022-10-30T15:05:42;17.85;;;5.60;;
29686;SDS011;16599;47.078;15.536;2022-10-30T15:13:54;16.15;;;5.00;;
29686;SDS011;16599;47.078;15.536;2022-10-30T15:16:25;17.60;;;5.95;;
29686;SDS011;16599;47.078;15.536;2022-10-30T15:21:30;14.35;;;6.25;;
29686;SDS011;16599;47.078;15.536;2022-10-30T15:27:41;18.67;;;6.20;;
29686;SDS011;16599;47.078;15.536;2022-10-30T15:30:29;17.75;;;6.57;;
29686;SDS011;16599;47.078;15.536;2022-10-30T15:32:55;20.23;;;6.45;;
29686;SDS011;16599;47.078;15.536;2022-10-30T15:35:24;13.60;;;5.70;;
29686;SDS011;16599;47.078;15.536;2022-10-30T15:37:56;13.52;;;6.45;;
29686;SDS011;16599;47.078;15.536;2022-10-30T15:40:24;20.20;;;6.15;;
29686;SDS011;16599;47.078;15.536;2022-10-30T15:42:51;24.52;;;6.28;;
29686;SDS011;16599;47.078;15.536;2022-10-30T15:45:38;24.30;;;6.80;;
29686;SDS011;16599;47.078;15.536;2022-10-30T15:50:43;19.42;;;6.55;;
29686;SDS011;16599;47.078;15.536;2022-10-30T15:53:18;15.38;;;6.28;;
29686;SDS011;16599;47.078;15.536;2022-10-30T15:55:50;14.35;;;6.60;;
29686;SDS011;16599;47.078;15.536;2022-10-30T15:58:17;25.65;;;6.95;;
29686;SDS011;16599;47.078;15.536;2022-10-30T16:00:57;18.57;;;6.27;;
29686;SDS011;16599;47.078;15.536;2022-10-30T16:03:26;24.98;;;7.90;;
29686;SDS011;16599;47.078;15.536;2022-10-30T16:06:13;17.13;;;7.22;;
29686;SDS011;16599;47.078;15.536;2022-10-30T16:13:51;24.52;;;11.77;;
29686;SDS011;16599;47.078;15.536;2022-10-30T16:16:29;27.23;;;11.82;;
29686;SDS011;16599;47.078;15.536;2022-10-30T16:18:57;26.15;;;13.43;;
29686;SDS011;16599;47.078;15.536;2022-10-30T16:21:27;28.10;;;14.25;;
29686;SDS011;16599;47.078;15.536;2022-10-30T16:24:00;27.63;;;11.57;;
29686;SDS011;16599;47.078;15.536;2022-10-30T16:26:33;22.00;;;10.00;;
29686;SDS011;16599;47.078;15.536;2022-10-30T16:29:06;20.00;;;9.05;;
29686;SDS011;16599;47.078;15.536;2022-10-30T16:34:18;18.20;;;7.43;;
29686;SDS011;16599;47.078;15.536;2022-10-30T16:36:49;11.45;;;6.63;;
29686;SDS011;16599;47.078;15.536;2022-10-30T16:39:18;20.20;;;7.97;;
29686;SDS011;16599;47.078;15.536;2022-10-30T16:41:46;21.13;;;7.63;;
29686;SDS011;16599;47.078;15.536;2022-10-30T16:44:19;26.83;;;8.15;;
29686;SDS011;16599;47.078;15.536;2022-10-30T16:47:05;22.52;;;7.55;;
29686;SDS011;16599;47.078;15.536;2022-10-30T16:49:47;22.20;;;7.53;;
29686;SDS011;16599;47.078;15.536;2022-10-30T16:52:17;20.17;;;7.90;;
29686;SDS011;16599;47.078;15.536;2022-10-30T16:54:57;19.33;;;7.25;;
29686;SDS011;16599;47.078;15.536;2022-10-30T16:57:28;17.35;;;6.88;;
29686;SDS011;16599;47.078;15.536;2022-10-30T16:59:58;18.88;;;8.05;;
29686;SDS011;16599;47.078;15.536;2022-10-30T17:02:30;25.13;;;8.20;;
29686;SDS011;16599;47.078;15.536;2022-10-30T17:07:28;22.10;;;7.40;;
29686;SDS011;16599;47.078;15.536;2022-10-30T17:09:55;18.65;;;7.65;;
29686;SDS011;16599;47.078;15.536;2022-10-30T17:12:27;20.42;;;8.73;;
29686;SDS011;16599;47.078;15.536;2022-10-30T17:17:37;21.73;;;8.40;;
29686;SDS011;16599;47.078;15.536;2022-10-30T17:22:44;19.63;;;8.43;;
29686;SDS011;16599;47.078;15.536;2022-10-30T17:25:13;30.70;;;8.02;;
29686;SDS011;16599;47.078;15.536;2022-10-30T17:28:32;25.67;;;8.45;;
29686;SDS011;16599;47.078;15.536;2022-10-30T17:31:21;17.98;;;7.95;;
29686;SDS011;16599;47.078;15.536;2022-10-30T17:36:46;16.58;;;7.90;;
29686;SDS011;16599;47.078;15.536;2022-10-30T17:39:14;26.48;;;8.20;;
29686;SDS011;16599;47.078;15.536;2022-10-30T17:41:41;17.55;;;7.35;;
29686;SDS011;16599;47.078;15.536;2022-10-30T17:44:15;20.98;;;7.45;;
29686;SDS011;16599;47.078;15.536;2022-10-30T17:46:48;24.13;;;8.20;;